sensor_id;sensor_type;location;lat;lon;timestamp;pressure;altitude;pressure_sealevel;temperature;humidity
38289;BME280;24092;53.370;-6.588;2023-02-16T00:01:59;100610.21;;;2.09;100.00
38289;BME280;24092;53.370;-6.588;2023-02-16T00:04:28;100605.57;;;1.93;100.00
38289;BME280;24092;53.370;-6.588;2023-02-16T00:06:56;100600.57;;;2.40;100.00
38289;BME280;24092;53.370;-6.588;2023-02-16T00:09:24;100595.75;;;2.41;100.00
38289;BME280;24092;53.370;-6.588;2023-02-16T00:11:52;100591.70;;;2.11;100.00
38289;BME280;24092;53.370;-6.588;2023-02-16T00:14:21;100589.55;;;2.38;100.00
38289;BME280;24092;53.370;-6.588;2023-02-16T00:16:49;100584.19;;;3.01;100.00
38289;BME280;24092;53.370;-6.588;2023-02-16T00:19:20;100582.17;;;3.06;100.00
38289;BME280;24092;53.370;-6.588;2023-02-16T00:21:49;100579.05;;;2.37;100.00
38289;BME280;24092;53.370;-6.588;2023-02-16T00:24:16;100577.95;;;2.94;100.00
38289;BME280;24092;53.370;-6.588;2023-02-16T00:26:44;100581.79;;;2.49;100.00
38289;BME280;24092;53.370;-6.588;2023-02-16T00:29:18;100583.27;;;2.35;100.00
38289;BME280;24092;53.370;-6.588;2023-02-16T00:31:46;100584.14;;;2.85;100.00
38289;BME280;24092;53.370;-6.588;2023-02-16T00:34:31;100584.03;;;2.45;100.00
38289;BME280;24092;53.370;-6.588;2023-02-16T00:37:01;100583.77;;;2.82;100.00
38289;BME280;24092;53.370;-6.588;2023-02-16T00:39:28;100584.16;;;2.69;100.00
38289;BME280;24092;53.370;-6.588;2023-02-16T00:41:59;100584.60;;;2.93;100.00
38289;BME280;24092;53.370;-6.588;2023-02-16T00:44:31;100586.51;;;2.74;100.00
38289;BME280;24092;53.370;-6.588;2023-02-16T00:47:01;100581.90;;;2.91;100.00
38289;BME280;24092;53.370;-6.588;2023-02-16T00:49:29;100578.24;;;3.43;100.00
38289;BME280;24092;53.370;-6.588;2023-02-16T00:51:57;100577.17;;;3.01;100.00
38289;BME280;24092;53.370;-6.588;2023-02-16T00:54:24;100573.40;;;3.26;100.00
38289;BME280;24092;53.370;-6.588;2023-02-16T00:56:51;100569.15;;;2.94;100.00
38289;BME280;24092;53.370;-6.588;2023-02-16T00:59:20;100570.09;;;2.91;100.00
38289;BME280;24092;53.370;-6.588;2023-02-16T01:01:48;100568.31;;;3.10;100.00
38289;BME280;24092;53.370;-6.588;2023-02-16T01:04:19;100565.87;;;3.29;100.00
38289;BME280;24092;53.370;-6.588;2023-02-16T01:06:46;100561.70;;;3.21;100.00
38289;BME280;24092;53.370;-6.588;2023-02-16T01:09:17;100561.28;;;2.97;100.00
38289;BME280;24092;53.370;-6.588;2023-02-16T01:11:44;100558.38;;;2.96;100.00
38289;BME280;24092;53.370;-6.588;2023-02-16T01:14:12;100560.28;;;3.01;100.00
38289;BME280;24092;53.370;-6.588;2023-02-16T01:16:40;100567.46;;;3.37;100.00
38289;BME280;24092;53.370;-6.588;2023-02-16T01:19:10;100568.19;;;3.05;100.00
38289;BME280;24092;53.370;-6.588;2023-02-16T01:21:37;100567.26;;;3.53;100.00
38289;BME280;24092;53.370;-6.588;2023-02-16T01:24:04;100567.70;;;3.43;100.00
38289;BME280;24092;53.370;-6.588;2023-02-16T01:26:37;100562.84;;;3.68;100.00
38289;BME280;24092;53.370;-6.588;2023-02-16T01:29:08;100561.44;;;3.45;100.00
38289;BME280;24092;53.370;-6.588;2023-02-16T01:31:39;100560.85;;;3.42;100.00
38289;BME280;24092;53.370;-6.588;2023-02-16T01:34:06;100560.09;;;3.84;100.00
38289;BME280;24092;53.370;-6.588;2023-02-16T01:36:35;100561.42;;;3.81;100.00
38289;BME280;24092;53.370;-6.588;2023-02-16T01:39:03;100555.57;;;3.58;100.00
38289;BME280;24092;53.370;-6.588;2023-02-16T01:41:43;100552.46;;;3.24;100.00
38289;BME280;24092;53.370;-6.588;2023-02-16T01:44:14;100553.03;;;3.54;100.00
38289;BME280;24092;53.370;-6.588;2023-02-16T01:46:46;100551.33;;;3.70;100.00
38289;BME280;24092;53.370;-6.588;2023-02-16T01:49:18;100554.04;;;3.82;100.00
38289;BME280;24092;53.370;-6.588;2023-02-16T01:51:52;100553.65;;;3.67;100.00
38289;BME280;24092;53.370;-6.588;2023-02-16T01:54:31;100552.26;;;3.47;100.00
38289;BME280;24092;53.370;-6.588;2023-02-16T01:57:03;100554.39;;;3.66;100.00
38289;BME280;24092;53.370;-6.588;2023-02-16T01:59:38;100555.35;;;3.32;100.00
38289;BME280;24092;53.370;-6.588;2023-02-16T02:02:11;100562.04;;;3.82;100.00
38289;BME280;24092;53.370;-6.588;2023-02-16T02:04:43;100560.76;;;3.83;100.00
38289;BME280;24092;53.370;-6.588;2023-02-16T02:07:18;100551.02;;;3.47;100.00
38289;BME280;24092;53.370;-6.588;2023-02-16T02:09:54;100546.25;;;3.84;100.00
38289;BME280;24092;53.370;-6.588;2023-02-16T02:12:27;100544.73;;;3.22;100.00
38289;BME280;24092;53.370;-6.588;2023-02-16T02:14:57;100543.42;;;3.61;100.00
38289;BME280;24092;53.370;-6.588;2023-02-16T02:17:25;100535.78;;;3.88;100.00
38289;BME280;24092;53.370;-6.588;2023-02-16T02:19:59;100538.49;;;4.08;100.00
38289;BME280;24092;53.370;-6.588;2023-02-16T02:23:17;100544.35;;;4.10;100.00
38289;BME280;24092;53.370;-6.588;2023-02-16T02:26:29;100545.75;;;4.12;100.00
38289;BME280;24092;53.370;-6.588;2023-02-16T02:29:06;100543.62;;;3.86;100.00
38289;BME280;24092;53.370;-6.588;2023-02-16T02:31:49;100541.23;;;3.86;100.00
38289;BME280;24092;53.370;-6.588;2023-02-16T02:34:25;100537.35;;;4.06;100.00
38289;BME280;24092;53.370;-6.588;2023-02-16T02:37:02;100526.91;;;3.56;100.00
38289;BME280;24092;53.370;-6.588;2023-02-16T02:39:36;100522.83;;;3.86;100.00
38289;BME280;24092;53.370;-6.588;2023-02-16T02:42:11;100524.08;;;3.94;100.00
38289;BME280;24092;53.370;-6.588;2023-02-16T02:44:45;100528.75;;;4.13;100.00
38289;BME280;24092;53.370;-6.588;2023-02-16T02:47:13;100534.59;;;4.14;100.00
38289;BME280;24092;53.370;-6.588;2023-02-16T02:49:40;100542.89;;;4.56;100.00
38289;BME280;24092;53.370;-6.588;2023-02-16T02:52:07;100538.32;;;3.69;100.00
38289;BME280;24092;53.370;-6.588;2023-02-16T02:54:38;100533.07;;;4.30;100.00
38289;BME280;24092;53.370;-6.588;2023-02-16T02:57:12;100537.25;;;4.15;100.00
38289;BME280;24092;53.370;-6.588;2023-02-16T02:59:42;100536.58;;;4.33;100.00
38289;BME280;24092;53.370;-6.588;2023-02-16T03:02:12;100546.08;;;4.50;100.00
38289;BME280;24092;53.370;-6.588;2023-02-16T03:04:40;100555.82;;;4.43;100.00
38289;BME280;24092;53.370;-6.588;2023-02-16T03:07:09;100565.50;;;4.55;100.00
38289;BME280;24092;53.370;-6.588;2023-02-16T03:09:37;100564.42;;;4.53;100.00
38289;BME280;24092;53.370;-6.588;2023-02-16T03:12:05;100565.08;;;4.43;100.00
38289;BME280;24092;53.370;-6.588;2023-02-16T03:14:36;100560.80;;;4.21;100.00
38289;BME280;24092;53.370;-6.588;2023-02-16T03:17:07;100567.22;;;4.72;100.00
38289;BME280;24092;53.370;-6.588;2023-02-16T03:19:36;100573.41;;;4.39;100.00
38289;BME280;24092;53.370;-6.588;2023-02-16T03:22:05;100572.72;;;4.81;100.00
38289;BME280;24092;53.370;-6.588;2023-02-16T03:24:33;100574.59;;;4.81;100.00
38289;BME280;24092;53.370;-6.588;2023-02-16T03:27:01;100582.26;;;4.94;100.00
38289;BME280;24092;53.370;-6.588;2023-02-16T03:29:28;100586.58;;;4.56;100.00
38289;BME280;24092;53.370;-6.588;2023-02-16T03:31:56;100584.94;;;4.74;100.00
38289;BME280;24092;53.370;-6.588;2023-02-16T03:34:25;100582.29;;;4.50;100.00
38289;BME280;24092;53.370;-6.588;2023-02-16T03:36:54;100578.16;;;4.44;100.00
38289;BME280;24092;53.370;-6.588;2023-02-16T03:39:23;100574.47;;;4.61;100.00
38289;BME280;24092;53.370;-6.588;2023-02-16T03:41:53;100567.82;;;4.54;100.00
38289;BME280;24092;53.370;-6.588;2023-02-16T03:44:21;100561.58;;;4.69;100.00
38289;BME280;24092;53.370;-6.588;2023-02-16T03:46:48;100559.83;;;4.66;100.00
38289;BME280;24092;53.370;-6.588;2023-02-16T03:49:15;100557.13;;;4.90;100.00
38289;BME280;24092;53.370;-6.588;2023-02-16T03:51:43;100553.07;;;4.65;100.00
38289;BME280;24092;53.370;-6.588;2023-02-16T03:54:11;100551.34;;;4.54;100.00
38289;BME280;24092;53.370;-6.588;2023-02-16T03:56:38;100553.64;;;4.26;100.00
38289;BME280;24092;53.370;-6.588;2023-02-16T03:59:05;100556.74;;;4.39;100.00
38289;BME280;24092;53.370;-6.588;2023-02-16T04:01:32;100555.67;;;4.66;100.00
38289;BME280;24092;53.370;-6.588;2023-02-16T04:03:59;100558.90;;;5.18;100.00
38289;BME280;24092;53.370;-6.588;2023-02-16T04:06:26;100556.48;;;5.28;100.00
38289;BME280;24092;53.370;-6.588;2023-02-16T04:08:53;100554.27;;;5.12;100.00
38289;BME280;24092;53.370;-6.588;2023-02-16T04:11:20;100557.04;;;4.47;100.00
38289;BME280;24092;53.370;-6.588;2023-02-16T04:13:47;100562.78;;;4.35;100.00
38289;BME280;24092;53.370;-6.588;2023-02-16T04:16:14;100557.90;;;4.92;100.00
38289;BME280;24092;53.370;-6.588;2023-02-16T04:18:41;100554.51;;;4.73;100.00
38289;BME280;24092;53.370;-6.588;2023-02-16T04:21:08;100555.15;;;5.04;100.00
38289;BME280;24092;53.370;-6.588;2023-02-16T04:23:35;100559.84;;;4.84;100.00
38289;BME280;24092;53.370;-6.588;2023-02-16T04:26:02;100562.94;;;4.57;100.00
38289;BME280;24092;53.370;-6.588;2023-02-16T04:28:29;100569.40;;;4.25;100.00
38289;BME280;24092;53.370;-6.588;2023-02-16T04:30:56;100571.40;;;4.18;100.00
38289;BME280;24092;53.370;-6.588;2023-02-16T04:33:23;100573.28;;;4.79;100.00
38289;BME280;24092;53.370;-6.588;2023-02-16T04:35:50;100570.27;;;4.95;100.00
38289;BME280;24092;53.370;-6.588;2023-02-16T04:38:17;100571.31;;;4.91;100.00
38289;BME280;24092;53.370;-6.588;2023-02-16T04:40:43;100571.16;;;5.03;100.00
38289;BME280;24092;53.370;-6.588;2023-02-16T04:43:11;100571.63;;;5.09;100.00
38289;BME280;24092;53.370;-6.588;2023-02-16T04:45:38;100577.06;;;5.41;100.00
38289;BME280;24092;53.370;-6.588;2023-02-16T04:48:05;100579.85;;;5.15;100.00
38289;BME280;24092;53.370;-6.588;2023-02-16T04:50:32;100586.17;;;4.99;100.00
38289;BME280;24092;53.370;-6.588;2023-02-16T04:52:59;100589.25;;;5.03;100.00
38289;BME280;24092;53.370;-6.588;2023-02-16T04:55:25;100590.41;;;5.56;100.00
38289;BME280;24092;53.370;-6.588;2023-02-16T04:57:52;100593.00;;;5.57;100.00
38289;BME280;24092;53.370;-6.588;2023-02-16T05:00:20;100588.04;;;5.46;100.00
38289;BME280;24092;53.370;-6.588;2023-02-16T05:02:46;100592.39;;;5.18;100.00
38289;BME280;24092;53.370;-6.588;2023-02-16T05:05:13;100592.79;;;5.08;100.00
38289;BME280;24092;53.370;-6.588;2023-02-16T05:07:40;100606.68;;;5.21;100.00
38289;BME280;24092;53.370;-6.588;2023-02-16T05:10:08;100613.02;;;4.79;100.00
38289;BME280;24092;53.370;-6.588;2023-02-16T05:12:35;100610.32;;;5.10;100.00
38289;BME280;24092;53.370;-6.588;2023-02-16T05:15:03;100608.57;;;5.09;100.00
38289;BME280;24092;53.370;-6.588;2023-02-16T05:17:30;100603.49;;;5.07;100.00
38289;BME280;24092;53.370;-6.588;2023-02-16T05:19:59;100598.66;;;5.29;100.00
38289;BME280;24092;53.370;-6.588;2023-02-16T05:22:27;100594.77;;;5.73;100.00
38289;BME280;24092;53.370;-6.588;2023-02-16T05:24:54;100597.92;;;5.85;100.00
38289;BME280;24092;53.370;-6.588;2023-02-16T05:27:23;100604.85;;;5.61;100.00
38289;BME280;24092;53.370;-6.588;2023-02-16T05:29:50;100605.25;;;5.46;100.00
38289;BME280;24092;53.370;-6.588;2023-02-16T05:32:18;100603.77;;;5.72;100.00
38289;BME280;24092;53.370;-6.588;2023-02-16T05:34:46;100610.79;;;6.56;100.00
38289;BME280;24092;53.370;-6.588;2023-02-16T05:37:15;100611.25;;;6.28;100.00
38289;BME280;24092;53.370;-6.588;2023-02-16T05:39:44;100606.68;;;7.24;100.00
38289;BME280;24092;53.370;-6.588;2023-02-16T05:42:11;100620.97;;;6.14;100.00
38289;BME280;24092;53.370;-6.588;2023-02-16T05:44:38;100629.98;;;5.91;100.00
38289;BME280;24092;53.370;-6.588;2023-02-16T05:47:05;100635.96;;;5.76;100.00
38289;BME280;24092;53.370;-6.588;2023-02-16T05:49:32;100645.16;;;6.17;100.00
38289;BME280;24092;53.370;-6.588;2023-02-16T05:51:59;100655.98;;;5.99;100.00
38289;BME280;24092;53.370;-6.588;2023-02-16T05:54:26;100670.74;;;6.25;100.00
38289;BME280;24092;53.370;-6.588;2023-02-16T05:56:53;100681.34;;;5.68;100.00
38289;BME280;24092;53.370;-6.588;2023-02-16T05:59:20;100684.25;;;5.44;100.00
38289;BME280;24092;53.370;-6.588;2023-02-16T06:01:47;100690.52;;;5.47;100.00
38289;BME280;24092;53.370;-6.588;2023-02-16T06:04:14;100682.93;;;5.50;100.00
38289;BME280;24092;53.370;-6.588;2023-02-16T06:06:41;100685.48;;;5.82;100.00
38289;BME280;24092;53.370;-6.588;2023-02-16T06:09:08;100685.66;;;5.38;100.00
38289;BME280;24092;53.370;-6.588;2023-02-16T06:11:36;100685.62;;;5.90;100.00
38289;BME280;24092;53.370;-6.588;2023-02-16T06:14:05;100685.75;;;5.67;100.00
38289;BME280;24092;53.370;-6.588;2023-02-16T06:16:34;100690.58;;;5.81;100.00
38289;BME280;24092;53.370;-6.588;2023-02-16T06:19:03;100691.17;;;5.89;100.00
38289;BME280;24092;53.370;-6.588;2023-02-16T06:21:30;100685.67;;;6.40;100.00
38289;BME280;24092;53.370;-6.588;2023-02-16T06:23:57;100689.85;;;5.95;100.00
38289;BME280;24092;53.370;-6.588;2023-02-16T06:26:25;100695.32;;;6.00;100.00
38289;BME280;24092;53.370;-6.588;2023-02-16T06:28:52;100691.86;;;6.64;100.00
38289;BME280;24092;53.370;-6.588;2023-02-16T06:31:20;100689.98;;;6.48;100.00
38289;BME280;24092;53.370;-6.588;2023-02-16T06:33:48;100698.07;;;7.09;100.00
38289;BME280;24092;53.370;-6.588;2023-02-16T06:36:16;100696.18;;;7.17;100.00
38289;BME280;24092;53.370;-6.588;2023-02-16T06:38:44;100693.80;;;7.23;100.00
38289;BME280;24092;53.370;-6.588;2023-02-16T06:41:11;100694.21;;;6.52;100.00
38289;BME280;24092;53.370;-6.588;2023-02-16T06:43:38;100699.69;;;6.55;100.00
38289;BME280;24092;53.370;-6.588;2023-02-16T06:46:05;100699.44;;;6.14;100.00
38289;BME280;24092;53.370;-6.588;2023-02-16T06:48:32;100703.08;;;5.72;100.00
38289;BME280;24092;53.370;-6.588;2023-02-16T06:50:59;100706.45;;;6.45;100.00
38289;BME280;24092;53.370;-6.588;2023-02-16T06:53:26;100708.74;;;6.60;100.00
38289;BME280;24092;53.370;-6.588;2023-02-16T06:55:53;100706.05;;;5.39;100.00
38289;BME280;24092;53.370;-6.588;2023-02-16T06:58:20;100703.70;;;5.92;100.00
38289;BME280;24092;53.370;-6.588;2023-02-16T07:00:47;100710.68;;;6.07;100.00
38289;BME280;24092;53.370;-6.588;2023-02-16T07:03:14;100713.47;;;5.58;100.00
38289;BME280;24092;53.370;-6.588;2023-02-16T07:05:41;100717.20;;;6.47;100.00
38289;BME280;24092;53.370;-6.588;2023-02-16T07:08:08;100723.59;;;6.13;100.00
38289;BME280;24092;53.370;-6.588;2023-02-16T07:10:35;100726.05;;;6.25;100.00
38289;BME280;24092;53.370;-6.588;2023-02-16T07:13:02;100729.14;;;5.82;100.00
38289;BME280;24092;53.370;-6.588;2023-02-16T07:15:29;100730.36;;;5.48;100.00
38289;BME280;24092;53.370;-6.588;2023-02-16T07:17:56;100731.08;;;5.55;100.00
38289;BME280;24092;53.370;-6.588;2023-02-16T07:20:23;100737.81;;;4.97;100.00
38289;BME280;24092;53.370;-6.588;2023-02-16T07:22:50;100742.14;;;5.11;100.00
38289;BME280;24092;53.370;-6.588;2023-02-16T07:25:17;100743.16;;;5.17;100.00
38289;BME280;24092;53.370;-6.588;2023-02-16T07:27:44;100742.51;;;5.06;100.00
38289;BME280;24092;53.370;-6.588;2023-02-16T07:30:12;100735.46;;;5.67;100.00
38289;BME280;24092;53.370;-6.588;2023-02-16T07:32:39;100725.08;;;6.24;100.00
38289;BME280;24092;53.370;-6.588;2023-02-16T07:35:06;100719.91;;;6.52;100.00
38289;BME280;24092;53.370;-6.588;2023-02-16T07:37:33;100718.75;;;6.66;100.00
38289;BME280;24092;53.370;-6.588;2023-02-16T07:40:00;100726.45;;;6.67;100.00
38289;BME280;24092;53.370;-6.588;2023-02-16T07:42:29;100733.35;;;6.60;100.00
38289;BME280;24092;53.370;-6.588;2023-02-16T07:44:56;100734.33;;;6.41;100.00
38289;BME280;24092;53.370;-6.588;2023-02-16T07:47:23;100740.22;;;6.05;100.00
38289;BME280;24092;53.370;-6.588;2023-02-16T07:49:50;100750.91;;;6.12;100.00
38289;BME280;24092;53.370;-6.588;2023-02-16T07:52:18;100759.93;;;6.43;100.00
38289;BME280;24092;53.370;-6.588;2023-02-16T07:54:45;100772.57;;;6.79;100.00
38289;BME280;24092;53.370;-6.588;2023-02-16T07:57:12;100783.12;;;7.24;100.00
38289;BME280;24092;53.370;-6.588;2023-02-16T07:59:39;100787.54;;;7.43;100.00
38289;BME280;24092;53.370;-6.588;2023-02-16T08:02:06;100785.35;;;7.22;100.00
38289;BME280;24092;53.370;-6.588;2023-02-16T08:04:33;100788.87;;;6.41;100.00
38289;BME280;24092;53.370;-6.588;2023-02-16T08:07:00;100800.20;;;6.31;100.00
38289;BME280;24092;53.370;-6.588;2023-02-16T08:09:27;100810.20;;;6.16;100.00
38289;BME280;24092;53.370;-6.588;2023-02-16T08:11:54;100816.13;;;5.97;100.00
38289;BME280;24092;53.370;-6.588;2023-02-16T08:14:21;100821.21;;;6.30;100.00
38289;BME280;24092;53.370;-6.588;2023-02-16T08:16:48;100834.34;;;5.89;100.00
38289;BME280;24092;53.370;-6.588;2023-02-16T08:19:15;100843.66;;;6.05;100.00
38289;BME280;24092;53.370;-6.588;2023-02-16T08:21:42;100850.26;;;6.24;100.00
38289;BME280;24092;53.370;-6.588;2023-02-16T08:24:11;100852.43;;;6.28;100.00
38289;BME280;24092;53.370;-6.588;2023-02-16T08:26:40;100862.15;;;5.80;100.00
38289;BME280;24092;53.370;-6.588;2023-02-16T08:29:08;100867.30;;;6.26;100.00
38289;BME280;24092;53.370;-6.588;2023-02-16T08:31:37;100871.02;;;5.88;100.00
38289;BME280;24092;53.370;-6.588;2023-02-16T08:34:04;100859.57;;;6.07;100.00
38289;BME280;24092;53.370;-6.588;2023-02-16T08:36:34;100864.88;;;6.51;100.00
38289;BME280;24092;53.370;-6.588;2023-02-16T08:39:03;100863.87;;;6.63;100.00
38289;BME280;24092;53.370;-6.588;2023-02-16T08:41:32;100868.37;;;6.15;100.00
38289;BME280;24092;53.370;-6.588;2023-02-16T08:44:00;100871.42;;;6.04;100.00
38289;BME280;24092;53.370;-6.588;2023-02-16T08:46:28;100880.16;;;5.53;100.00
38289;BME280;24092;53.370;-6.588;2023-02-16T08:48:56;100891.31;;;4.95;100.00
38289;BME280;24092;53.370;-6.588;2023-02-16T08:51:23;100890.48;;;4.68;100.00
38289;BME280;24092;53.370;-6.588;2023-02-16T08:53:51;100879.37;;;4.75;100.00
38289;BME280;24092;53.370;-6.588;2023-02-16T08:56:18;100878.79;;;5.27;100.00
38289;BME280;24092;53.370;-6.588;2023-02-16T08:58:45;100883.58;;;5.35;100.00
38289;BME280;24092;53.370;-6.588;2023-02-16T09:01:13;100880.28;;;4.62;100.00
38289;BME280;24092;53.370;-6.588;2023-02-16T09:03:41;100884.79;;;5.27;100.00
38289;BME280;24092;53.370;-6.588;2023-02-16T09:06:10;100892.02;;;5.12;100.00
38289;BME280;24092;53.370;-6.588;2023-02-16T09:08:39;100900.62;;;4.43;100.00
38289;BME280;24092;53.370;-6.588;2023-02-16T09:11:10;100905.10;;;3.79;100.00
38289;BME280;24092;53.370;-6.588;2023-02-16T09:13:39;100907.49;;;4.35;100.00
38289;BME280;24092;53.370;-6.588;2023-02-16T09:16:08;100909.24;;;4.61;100.00
38289;BME280;24092;53.370;-6.588;2023-02-16T09:18:37;100909.74;;;4.33;100.00
38289;BME280;24092;53.370;-6.588;2023-02-16T09:21:06;100910.19;;;4.52;100.00
38289;BME280;24092;53.370;-6.588;2023-02-16T09:23:34;100911.06;;;4.92;100.00
38289;BME280;24092;53.370;-6.588;2023-02-16T09:26:02;100917.81;;;4.75;100.00
38289;BME280;24092;53.370;-6.588;2023-02-16T09:28:29;100925.49;;;4.56;100.00
38289;BME280;24092;53.370;-6.588;2023-02-16T09:30:56;100920.45;;;4.38;100.00
38289;BME280;24092;53.370;-6.588;2023-02-16T09:33:23;100921.94;;;4.38;100.00
38289;BME280;24092;53.370;-6.588;2023-02-16T09:35:51;100917.34;;;4.21;100.00
38289;BME280;24092;53.370;-6.588;2023-02-16T09:38:18;100914.66;;;4.23;100.00
38289;BME280;24092;53.370;-6.588;2023-02-16T09:40:45;100924.22;;;4.50;100.00
38289;BME280;24092;53.370;-6.588;2023-02-16T09:43:20;100928.54;;;4.03;100.00
38289;BME280;24092;53.370;-6.588;2023-02-16T09:45:53;100939.16;;;3.80;100.00
38289;BME280;24092;53.370;-6.588;2023-02-16T09:48:26;100949.95;;;3.65;100.00
38289;BME280;24092;53.370;-6.588;2023-02-16T09:50:59;100959.12;;;3.86;100.00
38289;BME280;24092;53.370;-6.588;2023-02-16T09:53:36;100970.07;;;3.72;100.00
38289;BME280;24092;53.370;-6.588;2023-02-16T09:56:11;100976.95;;;4.01;100.00
38289;BME280;24092;53.370;-6.588;2023-02-16T09:58:46;100977.98;;;4.15;100.00
38289;BME280;24092;53.370;-6.588;2023-02-16T10:01:26;100984.56;;;4.11;100.00
38289;BME280;24092;53.370;-6.588;2023-02-16T10:04:05;100983.24;;;5.39;100.00
38289;BME280;24092;53.370;-6.588;2023-02-16T10:06:44;100997.83;;;5.82;100.00
38289;BME280;24092;53.370;-6.588;2023-02-16T10:09:16;100997.03;;;5.28;100.00
38289;BME280;24092;53.370;-6.588;2023-02-16T10:11:46;101005.38;;;4.48;100.00
38289;BME280;24092;53.370;-6.588;2023-02-16T10:14:21;101017.11;;;5.30;100.00
38289;BME280;24092;53.370;-6.588;2023-02-16T10:16:54;101019.24;;;5.25;100.00
38289;BME280;24092;53.370;-6.588;2023-02-16T10:19:27;101017.09;;;5.12;100.00
38289;BME280;24092;53.370;-6.588;2023-02-16T10:21:57;101009.50;;;5.17;100.00
38289;BME280;24092;53.370;-6.588;2023-02-16T10:24:30;101019.08;;;5.63;100.00
38289;BME280;24092;53.370;-6.588;2023-02-16T10:27:03;101022.78;;;5.55;100.00
38289;BME280;24092;53.370;-6.588;2023-02-16T10:29:31;101027.30;;;5.59;100.00
38289;BME280;24092;53.370;-6.588;2023-02-16T10:32:06;101037.66;;;5.48;100.00
38289;BME280;24092;53.370;-6.588;2023-02-16T10:34:46;101044.39;;;4.90;100.00
38289;BME280;24092;53.370;-6.588;2023-02-16T10:37:21;101041.90;;;5.30;100.00
38289;BME280;24092;53.370;-6.588;2023-02-16T10:39:59;101033.35;;;4.62;100.00
38289;BME280;24092;53.370;-6.588;2023-02-16T10:42:36;101025.65;;;4.08;100.00
38289;BME280;24092;53.370;-6.588;2023-02-16T10:45:15;101028.30;;;3.86;100.00
38289;BME280;24092;53.370;-6.588;2023-02-16T10:47:45;101014.55;;;4.47;100.00
38289;BME280;24092;53.370;-6.588;2023-02-16T10:50:20;101027.97;;;4.40;100.00
38289;BME280;24092;53.370;-6.588;2023-02-16T10:52:49;101029.56;;;4.14;100.00
38289;BME280;24092;53.370;-6.588;2023-02-16T10:55:18;101014.42;;;4.41;100.00
38289;BME280;24092;53.370;-6.588;2023-02-16T10:57:51;101007.05;;;4.71;100.00
38289;BME280;24092;53.370;-6.588;2023-02-16T11:00:25;101012.41;;;4.15;100.00
38289;BME280;24092;53.370;-6.588;2023-02-16T11:02:54;101021.39;;;3.98;100.00
38289;BME280;24092;53.370;-6.588;2023-02-16T11:05:32;101027.12;;;3.41;100.00
38289;BME280;24092;53.370;-6.588;2023-02-16T11:08:01;101034.08;;;3.48;100.00
38289;BME280;24092;53.370;-6.588;2023-02-16T11:10:39;101029.83;;;3.93;100.00
38289;BME280;24092;53.370;-6.588;2023-02-16T11:13:15;101023.52;;;4.46;100.00
38289;BME280;24092;53.370;-6.588;2023-02-16T11:15:50;101028.32;;;4.23;100.00
38289;BME280;24092;53.370;-6.588;2023-02-16T11:18:28;101030.29;;;4.99;100.00
38289;BME280;24092;53.370;-6.588;2023-02-16T11:20:56;101035.66;;;4.75;100.00
38289;BME280;24092;53.370;-6.588;2023-02-16T11:23:25;101033.64;;;4.62;100.00
38289;BME280;24092;53.370;-6.588;2023-02-16T11:25:55;101032.89;;;3.92;100.00
38289;BME280;24092;53.370;-6.588;2023-02-16T11:28:31;101034.52;;;3.41;100.00
38289;BME280;24092;53.370;-6.588;2023-02-16T11:31:03;101030.00;;;4.27;100.00
38289;BME280;24092;53.370;-6.588;2023-02-16T11:33:31;101030.27;;;4.08;100.00
38289;BME280;24092;53.370;-6.588;2023-02-16T11:35:59;101035.93;;;3.38;100.00
38289;BME280;24092;53.370;-6.588;2023-02-16T11:38:28;101046.93;;;3.68;100.00
38289;BME280;24092;53.370;-6.588;2023-02-16T11:40:58;101054.23;;;4.12;100.00
38289;BME280;24092;53.370;-6.588;2023-02-16T11:43:28;101044.91;;;3.78;100.00
38289;BME280;24092;53.370;-6.588;2023-02-16T11:45:57;101039.77;;;3.87;100.00
38289;BME280;24092;53.370;-6.588;2023-02-16T11:48:26;101035.54;;;3.56;100.00
38289;BME280;24092;53.370;-6.588;2023-02-16T11:50:56;101035.63;;;3.32;100.00
38289;BME280;24092;53.370;-6.588;2023-02-16T11:53:26;101020.61;;;3.55;100.00
38289;BME280;24092;53.370;-6.588;2023-02-16T11:56:11;101016.58;;;4.31;100.00
38289;BME280;24092;53.370;-6.588;2023-02-16T11:58:40;101014.46;;;4.39;100.00
38289;BME280;24092;53.370;-6.588;2023-02-16T12:01:17;101013.84;;;4.08;100.00
38289;BME280;24092;53.370;-6.588;2023-02-16T12:04:02;101011.51;;;4.08;100.00
38289;BME280;24092;53.370;-6.588;2023-02-16T12:06:47;101002.35;;;4.26;100.00
38289;BME280;24092;53.370;-6.588;2023-02-16T12:09:22;101005.22;;;4.25;100.00
38289;BME280;24092;53.370;-6.588;2023-02-16T12:12:01;101000.23;;;4.09;100.00
38289;BME280;24092;53.370;-6.588;2023-02-16T12:14:41;100999.62;;;3.86;100.00
38289;BME280;24092;53.370;-6.588;2023-02-16T12:17:23;101001.75;;;4.38;100.00
38289;BME280;24092;53.370;-6.588;2023-02-16T12:20:05;100998.10;;;4.53;100.00
38289;BME280;24092;53.370;-6.588;2023-02-16T12:22:41;100997.31;;;4.63;100.00
38289;BME280;24092;53.370;-6.588;2023-02-16T12:25:20;100996.74;;;4.34;100.00
38289;BME280;24092;53.370;-6.588;2023-02-16T12:27:54;100989.88;;;4.64;100.00
38289;BME280;24092;53.370;-6.588;2023-02-16T12:30:35;101001.83;;;4.71;100.00
38289;BME280;24092;53.370;-6.588;2023-02-16T12:33:15;100990.56;;;4.77;100.00
38289;BME280;24092;53.370;-6.588;2023-02-16T12:36:29;100993.77;;;4.66;100.00
38289;BME280;24092;53.370;-6.588;2023-02-16T12:39:04;100986.53;;;4.25;100.00
38289;BME280;24092;53.370;-6.588;2023-02-16T12:41:43;100988.58;;;5.05;100.00
38289;BME280;24092;53.370;-6.588;2023-02-16T12:44:16;100981.72;;;5.18;100.00
38289;BME280;24092;53.370;-6.588;2023-02-16T12:46:47;100975.35;;;5.11;100.00
38289;BME280;24092;53.370;-6.588;2023-02-16T12:49:18;100977.68;;;5.15;100.00
38289;BME280;24092;53.370;-6.588;2023-02-16T12:51:51;100975.44;;;4.89;100.00
38289;BME280;24092;53.370;-6.588;2023-02-16T12:54:23;100980.69;;;4.43;100.00
38289;BME280;24092;53.370;-6.588;2023-02-16T12:56:58;100979.39;;;4.01;100.00